createdAt,value
2023-04-26T00:14:14.863Z,13.23
2023-04-26T00:29:16.674Z,13.17
2023-04-26T00:44:18.646Z,12.92
2023-04-26T00:59:21.552Z,12.68
2023-04-26T01:14:24.234Z,12.51
2023-04-26T01:29:27.522Z,12.52
2023-04-26T01:44:29.431Z,12.27
2023-04-26T01:59:31.450Z,12.05
2023-04-26T02:14:33.640Z,12.09
2023-04-26T02:29:43.631Z,11.59
2023-04-26T02:44:46.471Z,11.59
2023-04-26T02:59:48.300Z,11.73
2023-04-26T03:14:50.309Z,11.59
2023-04-26T03:29:52.307Z,11.54
2023-04-26T03:44:54.206Z,11.54
2023-04-26T03:59:56.449Z,11.46
2023-04-26T04:14:58.349Z,11.55
2023-04-26T04:30:03.650Z,11.59
2023-04-26T04:45:06.269Z,12.03
2023-04-26T05:00:12.865Z,12.17
2023-04-26T05:15:15.010Z,12.39
2023-04-26T05:30:17.180Z,13.18
2023-04-26T05:45:18.987Z,13.99
2023-04-26T06:00:23.649Z,14.88
2023-04-26T06:15:26.159Z,16.23
2023-04-26T06:30:28.046Z,16.84
2023-04-26T06:45:30.980Z,17.25
2023-04-26T07:00:34.920Z,18.79
2023-04-26T07:15:37.389Z,19.51
2023-04-26T07:30:39.424Z,20.10
2023-04-26T07:45:41.814Z,20.21
2023-04-26T08:00:43.780Z,20.19
2023-04-26T08:15:48.126Z,20.27
2023-04-26T08:30:49.993Z,20.54
2023-04-26T08:45:52.388Z,20.45
2023-04-26T09:00:54.668Z,20.74
2023-04-26T09:15:57.017Z,21.31
2023-04-26T09:30:58.936Z,21.94
2023-04-26T09:46:01.049Z,21.67
2023-04-26T10:01:04.561Z,21.77
2023-04-26T10:16:07.192Z,22.31
2023-04-26T10:31:09.078Z,22.91
2023-04-26T10:46:35.212Z,22.55
2023-04-26T11:01:37.931Z,23.94
2023-04-26T11:16:41.358Z,24.58
2023-04-26T11:31:43.218Z,24.08
2023-04-26T11:46:45.992Z,22.16
2023-04-26T12:01:52.525Z,21.35
2023-04-26T12:17:08.241Z,21.44
2023-04-26T12:32:10.183Z,21.26
2023-04-26T12:47:11.999Z,21.45
2023-04-26T13:02:14.131Z,21.53
2023-04-26T13:17:16.518Z,21.42
2023-04-26T13:32:18.662Z,20.84
2023-04-26T13:47:20.683Z,20.94
2023-04-26T14:02:23.090Z,20.84
2023-04-26T14:17:25.985Z,20.88
2023-04-26T14:32:32.257Z,20.56
2023-04-26T14:47:34.177Z,20.61
2023-04-26T15:02:36.306Z,20.67
2023-04-26T15:17:38.952Z,20.36
2023-04-26T15:32:40.897Z,20.05
2023-04-26T15:47:44.086Z,19.95
2023-04-26T16:02:46.175Z,19.66
2023-04-26T16:17:48.226Z,19.29
2023-04-26T16:32:50.123Z,19.05
2023-04-26T16:47:52.149Z,18.98
2023-04-26T17:02:54.195Z,18.87
2023-04-26T17:17:57.422Z,18.64
2023-04-26T17:32:59.279Z,18.37
2023-04-26T17:48:01.324Z,18.21
2023-04-26T18:03:05.260Z,18.08
2023-04-26T18:18:08.317Z,17.98
2023-04-26T18:33:10.229Z,17.72
2023-04-26T18:48:12.171Z,17.59
2023-04-26T19:03:14.176Z,17.64
2023-04-26T19:18:18.609Z,17.62
2023-04-26T19:33:20.409Z,17.57
2023-04-26T19:48:22.227Z,17.53
2023-04-26T20:03:24.695Z,17.49
2023-04-26T20:18:27.403Z,17.49
2023-04-26T20:33:29.414Z,17.48
2023-04-26T20:48:31.228Z,17.32
2023-04-26T21:03:34.559Z,17.15
2023-04-26T21:18:37.287Z,16.99
2023-04-26T21:33:41.073Z,16.86
2023-04-26T21:48:44.440Z,16.83
2023-04-26T22:03:46.496Z,16.78
2023-04-26T22:18:48.902Z,16.71
2023-04-26T22:33:51.040Z,16.62
2023-04-26T22:48:53.652Z,16.64
2023-04-26T23:03:55.880Z,16.62
2023-04-26T23:18:58.443Z,16.44
2023-04-26T23:34:00.456Z,16.35
2023-04-26T23:49:02.431Z,16.38
